sensor_id;sensor_type;location;lat;lon;timestamp;temperature;humidity
69436;SHT31;56625;54.322;18.582;2023-11-19T00:00:31;2.31;85.83
69436;SHT31;56625;54.322;18.582;2023-11-19T00:03:19;2.24;85.57
69436;SHT31;56625;54.322;18.582;2023-11-19T00:05:48;2.19;85.64
69436;SHT31;56625;54.322;18.582;2023-11-19T00:08:16;2.14;85.63
69436;SHT31;56625;54.322;18.582;2023-11-19T00:10:44;2.10;85.51
69436;SHT31;56625;54.322;18.582;2023-11-19T00:13:14;2.05;85.54
69436;SHT31;56625;54.322;18.582;2023-11-19T00:15:42;2.03;85.69
69436;SHT31;56625;54.322;18.582;2023-11-19T00:18:10;2.03;85.77
69436;SHT31;56625;54.322;18.582;2023-11-19T00:20:38;2.00;85.68
69436;SHT31;56625;54.322;18.582;2023-11-19T00:23:06;1.99;85.79
69436;SHT31;56625;54.322;18.582;2023-11-19T00:25:34;1.98;85.81
69436;SHT31;56625;54.322;18.582;2023-11-19T00:28:02;1.98;85.85
69436;SHT31;56625;54.322;18.582;2023-11-19T00:30:30;1.96;85.75
69436;SHT31;56625;54.322;18.582;2023-11-19T00:32:58;1.93;85.81
69436;SHT31;56625;54.322;18.582;2023-11-19T00:35:27;1.90;85.81
69436;SHT31;56625;54.322;18.582;2023-11-19T00:37:55;1.86;85.90
69436;SHT31;56625;54.322;18.582;2023-11-19T00:40:23;1.82;85.96
69436;SHT31;56625;54.322;18.582;2023-11-19T00:42:51;1.78;86.03
69436;SHT31;56625;54.322;18.582;2023-11-19T00:45:19;1.76;86.13
69436;SHT31;56625;54.322;18.582;2023-11-19T00:47:48;1.75;86.16
69436;SHT31;56625;54.322;18.582;2023-11-19T00:50:16;1.74;86.20
69436;SHT31;56625;54.322;18.582;2023-11-19T00:52:45;1.73;86.20
69436;SHT31;56625;54.322;18.582;2023-11-19T00:55:13;1.74;86.23
69436;SHT31;56625;54.322;18.582;2023-11-19T00:57:41;1.74;86.28
69436;SHT31;56625;54.322;18.582;2023-11-19T01:00:09;1.73;86.32
69436;SHT31;56625;54.322;18.582;2023-11-19T01:02:48;1.72;86.29
69436;SHT31;56625;54.322;18.582;2023-11-19T01:05:19;1.70;86.26
69436;SHT31;56625;54.322;18.582;2023-11-19T01:07:51;1.71;86.30
69436;SHT31;56625;54.322;18.582;2023-11-19T01:10:22;1.72;86.30
69436;SHT31;56625;54.322;18.582;2023-11-19T01:12:50;1.72;86.33
69436;SHT31;56625;54.322;18.582;2023-11-19T01:15:20;1.72;86.22
69436;SHT31;56625;54.322;18.582;2023-11-19T01:17:48;1.71;86.12
69436;SHT31;56625;54.322;18.582;2023-11-19T01:20:20;1.71;86.10
69436;SHT31;56625;54.322;18.582;2023-11-19T01:22:49;1.71;86.12
69436;SHT31;56625;54.322;18.582;2023-11-19T01:25:18;1.71;86.07
69436;SHT31;56625;54.322;18.582;2023-11-19T01:27:47;1.71;86.09
69436;SHT31;56625;54.322;18.582;2023-11-19T01:30:15;1.72;86.10
69436;SHT31;56625;54.322;18.582;2023-11-19T01:32:43;1.70;86.10
69436;SHT31;56625;54.322;18.582;2023-11-19T01:35:11;1.69;86.06
69436;SHT31;56625;54.322;18.582;2023-11-19T01:37:40;1.66;86.02
69436;SHT31;56625;54.322;18.582;2023-11-19T01:40:08;1.66;86.00
69436;SHT31;56625;54.322;18.582;2023-11-19T01:42:39;1.63;85.92
69436;SHT31;56625;54.322;18.582;2023-11-19T01:45:08;1.61;85.72
69436;SHT31;56625;54.322;18.582;2023-11-19T01:47:44;1.60;85.51
69436;SHT31;56625;54.322;18.582;2023-11-19T01:50:12;1.59;85.50
69436;SHT31;56625;54.322;18.582;2023-11-19T01:52:41;1.60;85.38
69436;SHT31;56625;54.322;18.582;2023-11-19T01:55:09;1.59;85.23
69436;SHT31;56625;54.322;18.582;2023-11-19T01:57:39;1.60;85.04
69436;SHT31;56625;54.322;18.582;2023-11-19T02:00:09;1.59;84.84
69436;SHT31;56625;54.322;18.582;2023-11-19T02:02:40;1.58;84.72
69436;SHT31;56625;54.322;18.582;2023-11-19T02:05:12;1.57;84.61
69436;SHT31;56625;54.322;18.582;2023-11-19T02:07:41;1.57;84.26
69436;SHT31;56625;54.322;18.582;2023-11-19T02:10:09;1.56;83.89
69436;SHT31;56625;54.322;18.582;2023-11-19T02:12:42;1.57;83.98
69436;SHT31;56625;54.322;18.582;2023-11-19T02:15:10;1.56;83.97
69436;SHT31;56625;54.322;18.582;2023-11-19T02:17:39;1.56;83.81
69436;SHT31;56625;54.322;18.582;2023-11-19T02:20:07;1.57;83.98
69436;SHT31;56625;54.322;18.582;2023-11-19T02:22:41;1.58;84.05
69436;SHT31;56625;54.322;18.582;2023-11-19T02:25:25;1.61;84.11
69436;SHT31;56625;54.322;18.582;2023-11-19T02:28:00;1.61;84.10
69436;SHT31;56625;54.322;18.582;2023-11-19T02:30:31;1.62;84.09
69436;SHT31;56625;54.322;18.582;2023-11-19T02:32:59;1.60;84.01
69436;SHT31;56625;54.322;18.582;2023-11-19T02:35:33;1.59;83.94
69436;SHT31;56625;54.322;18.582;2023-11-19T02:38:01;1.57;83.92
69436;SHT31;56625;54.322;18.582;2023-11-19T02:40:31;1.55;83.98
69436;SHT31;56625;54.322;18.582;2023-11-19T02:42:59;1.55;84.01
69436;SHT31;56625;54.322;18.582;2023-11-19T02:45:27;1.53;84.08
69436;SHT31;56625;54.322;18.582;2023-11-19T02:47:58;1.49;84.19
69436;SHT31;56625;54.322;18.582;2023-11-19T02:50:29;1.45;84.32
69436;SHT31;56625;54.322;18.582;2023-11-19T02:52:59;1.41;84.49
69436;SHT31;56625;54.322;18.582;2023-11-19T02:55:27;1.39;84.68
69436;SHT31;56625;54.322;18.582;2023-11-19T02:57:58;1.36;84.84
69436;SHT31;56625;54.322;18.582;2023-11-19T03:00:27;1.33;85.00
69436;SHT31;56625;54.322;18.582;2023-11-19T03:03:03;1.31;85.15
69436;SHT31;56625;54.322;18.582;2023-11-19T03:05:46;1.28;85.26
69436;SHT31;56625;54.322;18.582;2023-11-19T03:08:15;1.27;85.37
69436;SHT31;56625;54.322;18.582;2023-11-19T03:10:47;1.27;85.48
69436;SHT31;56625;54.322;18.582;2023-11-19T03:13:15;1.27;85.60
69436;SHT31;56625;54.322;18.582;2023-11-19T03:15:45;1.28;85.68
69436;SHT31;56625;54.322;18.582;2023-11-19T03:18:13;1.27;85.61
69436;SHT31;56625;54.322;18.582;2023-11-19T03:20:41;1.27;85.68
69436;SHT31;56625;54.322;18.582;2023-11-19T03:23:10;1.24;85.69
69436;SHT31;56625;54.322;18.582;2023-11-19T03:25:38;1.22;85.76
69436;SHT31;56625;54.322;18.582;2023-11-19T03:28:06;1.20;85.80
69436;SHT31;56625;54.322;18.582;2023-11-19T03:30:34;1.16;85.85
69436;SHT31;56625;54.322;18.582;2023-11-19T03:33:02;1.13;85.97
69436;SHT31;56625;54.322;18.582;2023-11-19T03:35:31;1.11;86.07
69436;SHT31;56625;54.322;18.582;2023-11-19T03:38:00;1.07;86.15
69436;SHT31;56625;54.322;18.582;2023-11-19T03:40:29;1.05;86.24
69436;SHT31;56625;54.322;18.582;2023-11-19T03:42:57;1.04;86.35
69436;SHT31;56625;54.322;18.582;2023-11-19T03:45:27;1.07;86.56
69436;SHT31;56625;54.322;18.582;2023-11-19T03:47:55;1.05;86.47
69436;SHT31;56625;54.322;18.582;2023-11-19T03:50:23;1.04;86.48
69436;SHT31;56625;54.322;18.582;2023-11-19T03:52:51;1.00;86.48
69436;SHT31;56625;54.322;18.582;2023-11-19T03:55:20;0.96;86.50
69436;SHT31;56625;54.322;18.582;2023-11-19T03:57:48;0.91;86.55
69436;SHT31;56625;54.322;18.582;2023-11-19T04:00:16;0.89;86.64
69436;SHT31;56625;54.322;18.582;2023-11-19T04:02:45;0.86;86.69
69436;SHT31;56625;54.322;18.582;2023-11-19T04:05:15;0.84;86.73
69436;SHT31;56625;54.322;18.582;2023-11-19T04:07:43;0.84;86.78
69436;SHT31;56625;54.322;18.582;2023-11-19T04:10:11;0.81;86.80
69436;SHT31;56625;54.322;18.582;2023-11-19T04:12:39;0.79;86.82
69436;SHT31;56625;54.322;18.582;2023-11-19T04:15:07;0.79;86.88
69436;SHT31;56625;54.322;18.582;2023-11-19T04:17:36;0.78;86.84
69436;SHT31;56625;54.322;18.582;2023-11-19T04:20:04;0.79;86.80
69436;SHT31;56625;54.322;18.582;2023-11-19T04:22:38;0.79;86.79
69436;SHT31;56625;54.322;18.582;2023-11-19T04:25:06;0.79;86.66
69436;SHT31;56625;54.322;18.582;2023-11-19T04:27:35;0.79;86.60
69436;SHT31;56625;54.322;18.582;2023-11-19T04:30:03;0.79;86.58
69436;SHT31;56625;54.322;18.582;2023-11-19T04:32:32;0.78;86.43
69436;SHT31;56625;54.322;18.582;2023-11-19T04:35:00;0.78;86.40
69436;SHT31;56625;54.322;18.582;2023-11-19T04:37:28;0.78;86.40
69436;SHT31;56625;54.322;18.582;2023-11-19T04:39:56;0.81;86.37
69436;SHT31;56625;54.322;18.582;2023-11-19T04:42:25;0.82;86.30
69436;SHT31;56625;54.322;18.582;2023-11-19T04:44:53;0.82;86.24
69436;SHT31;56625;54.322;18.582;2023-11-19T04:47:21;0.81;86.20
69436;SHT31;56625;54.322;18.582;2023-11-19T04:49:49;0.81;86.13
69436;SHT31;56625;54.322;18.582;2023-11-19T04:52:18;0.79;86.10
69436;SHT31;56625;54.322;18.582;2023-11-19T04:54:46;0.79;86.10
69436;SHT31;56625;54.322;18.582;2023-11-19T04:57:16;0.78;86.10
69436;SHT31;56625;54.322;18.582;2023-11-19T04:59:44;0.77;86.10
69436;SHT31;56625;54.322;18.582;2023-11-19T05:02:13;0.77;86.06
69436;SHT31;56625;54.322;18.582;2023-11-19T05:04:44;0.74;86.02
69436;SHT31;56625;54.322;18.582;2023-11-19T05:07:14;0.74;86.06
69436;SHT31;56625;54.322;18.582;2023-11-19T05:09:43;0.74;86.08
69436;SHT31;56625;54.322;18.582;2023-11-19T05:12:11;0.73;86.08
69436;SHT31;56625;54.322;18.582;2023-11-19T05:14:40;0.73;86.10
69436;SHT31;56625;54.322;18.582;2023-11-19T05:17:08;0.74;86.05
69436;SHT31;56625;54.322;18.582;2023-11-19T05:19:36;0.74;86.07
69436;SHT31;56625;54.322;18.582;2023-11-19T05:22:04;0.74;86.00
69436;SHT31;56625;54.322;18.582;2023-11-19T05:24:32;0.73;85.99
69436;SHT31;56625;54.322;18.582;2023-11-19T05:27:00;0.70;85.99
69436;SHT31;56625;54.322;18.582;2023-11-19T05:29:28;0.68;86.00
69436;SHT31;56625;54.322;18.582;2023-11-19T05:31:57;0.65;86.02
69436;SHT31;56625;54.322;18.582;2023-11-19T05:34:27;0.62;86.07
69436;SHT31;56625;54.322;18.582;2023-11-19T05:36:55;0.58;86.14
69436;SHT31;56625;54.322;18.582;2023-11-19T05:39:23;0.56;86.21
69436;SHT31;56625;54.322;18.582;2023-11-19T05:41:52;0.52;86.29
69436;SHT31;56625;54.322;18.582;2023-11-19T05:44:20;0.49;86.42
69436;SHT31;56625;54.322;18.582;2023-11-19T05:46:48;0.45;86.51
69436;SHT31;56625;54.322;18.582;2023-11-19T05:49:16;0.42;86.63
69436;SHT31;56625;54.322;18.582;2023-11-19T05:51:44;0.40;86.69
69436;SHT31;56625;54.322;18.582;2023-11-19T05:54:13;0.37;86.74
69436;SHT31;56625;54.322;18.582;2023-11-19T05:56:41;0.34;86.84
69436;SHT31;56625;54.322;18.582;2023-11-19T05:59:15;0.32;86.91
69436;SHT31;56625;54.322;18.582;2023-11-19T06:01:45;0.30;86.99
69436;SHT31;56625;54.322;18.582;2023-11-19T06:04:14;0.27;87.05
69436;SHT31;56625;54.322;18.582;2023-11-19T06:06:42;0.25;87.10
69436;SHT31;56625;54.322;18.582;2023-11-19T06:09:10;0.24;87.18
69436;SHT31;56625;54.322;18.582;2023-11-19T06:11:40;0.23;87.20
69436;SHT31;56625;54.322;18.582;2023-11-19T06:14:08;0.22;87.20
69436;SHT31;56625;54.322;18.582;2023-11-19T06:16:36;0.19;87.30
69436;SHT31;56625;54.322;18.582;2023-11-19T06:19:04;0.17;87.35
69436;SHT31;56625;54.322;18.582;2023-11-19T06:21:33;0.15;87.41
69436;SHT31;56625;54.322;18.582;2023-11-19T06:24:01;0.14;87.50
69436;SHT31;56625;54.322;18.582;2023-11-19T06:26:29;0.11;87.58
69436;SHT31;56625;54.322;18.582;2023-11-19T06:28:57;0.10;87.64
69436;SHT31;56625;54.322;18.582;2023-11-19T06:31:25;0.06;87.71
69436;SHT31;56625;54.322;18.582;2023-11-19T06:33:54;0.05;87.80
69436;SHT31;56625;54.322;18.582;2023-11-19T06:36:22;0.04;87.96
69436;SHT31;56625;54.322;18.582;2023-11-19T06:38:50;0.02;88.00
69436;SHT31;56625;54.322;18.582;2023-11-19T06:41:18;0.03;88.00
69436;SHT31;56625;54.322;18.582;2023-11-19T06:43:46;0.03;87.99
69436;SHT31;56625;54.322;18.582;2023-11-19T06:46:17;0.04;88.03
69436;SHT31;56625;54.322;18.582;2023-11-19T06:48:45;0.05;88.00
69436;SHT31;56625;54.322;18.582;2023-11-19T06:51:14;0.04;87.96
69436;SHT31;56625;54.322;18.582;2023-11-19T06:53:42;0.06;87.93
69436;SHT31;56625;54.322;18.582;2023-11-19T06:56:46;0.07;87.90
69436;SHT31;56625;54.322;18.582;2023-11-19T06:59:06;0.11;87.90
69436;SHT31;56625;54.322;18.582;2023-11-19T07:01:35;0.13;87.90
69436;SHT31;56625;54.322;18.582;2023-11-19T07:04:04;0.16;87.82
69436;SHT31;56625;54.322;18.582;2023-11-19T07:06:37;0.17;87.82
69436;SHT31;56625;54.322;18.582;2023-11-19T07:09:06;0.18;87.84
69436;SHT31;56625;54.322;18.582;2023-11-19T07:11:38;0.19;87.89
69436;SHT31;56625;54.322;18.582;2023-11-19T07:14:08;0.21;87.92
69436;SHT31;56625;54.322;18.582;2023-11-19T07:16:37;0.20;87.92
69436;SHT31;56625;54.322;18.582;2023-11-19T07:19:06;0.24;87.96
69436;SHT31;56625;54.322;18.582;2023-11-19T07:21:35;0.25;88.00
69436;SHT31;56625;54.322;18.582;2023-11-19T07:24:07;0.27;88.01
69436;SHT31;56625;54.322;18.582;2023-11-19T07:26:36;0.30;88.03
69436;SHT31;56625;54.322;18.582;2023-11-19T07:29:10;0.33;88.01
69436;SHT31;56625;54.322;18.582;2023-11-19T07:31:38;0.37;87.99
69436;SHT31;56625;54.322;18.582;2023-11-19T07:34:07;0.39;88.00
69436;SHT31;56625;54.322;18.582;2023-11-19T07:36:37;0.42;87.93
69436;SHT31;56625;54.322;18.582;2023-11-19T07:39:08;0.44;87.90
69436;SHT31;56625;54.322;18.582;2023-11-19T07:41:36;0.47;87.84
69436;SHT31;56625;54.322;18.582;2023-11-19T07:44:04;0.51;87.78
69436;SHT31;56625;54.322;18.582;2023-11-19T07:46:32;0.52;87.61
69436;SHT31;56625;54.322;18.582;2023-11-19T07:49:00;0.53;87.53
69436;SHT31;56625;54.322;18.582;2023-11-19T07:51:30;0.55;87.33
69436;SHT31;56625;54.322;18.582;2023-11-19T07:54:00;0.54;87.13
69436;SHT31;56625;54.322;18.582;2023-11-19T07:56:28;0.55;87.02
69436;SHT31;56625;54.322;18.582;2023-11-19T07:58:56;0.56;87.00
69436;SHT31;56625;54.322;18.582;2023-11-19T08:01:24;0.60;86.86
69436;SHT31;56625;54.322;18.582;2023-11-19T08:03:52;0.64;86.71
69436;SHT31;56625;54.322;18.582;2023-11-19T08:06:23;0.67;86.59
69436;SHT31;56625;54.322;18.582;2023-11-19T08:08:52;0.69;86.43
69436;SHT31;56625;54.322;18.582;2023-11-19T08:11:20;0.71;86.15
69436;SHT31;56625;54.322;18.582;2023-11-19T08:13:48;0.75;86.26
69436;SHT31;56625;54.322;18.582;2023-11-19T08:16:17;0.80;86.04
69436;SHT31;56625;54.322;18.582;2023-11-19T08:18:45;0.86;86.01
69436;SHT31;56625;54.322;18.582;2023-11-19T08:21:13;0.92;85.94
69436;SHT31;56625;54.322;18.582;2023-11-19T08:23:42;0.98;85.79
69436;SHT31;56625;54.322;18.582;2023-11-19T08:26:10;1.02;85.39
69436;SHT31;56625;54.322;18.582;2023-11-19T08:28:38;1.07;85.31
69436;SHT31;56625;54.322;18.582;2023-11-19T08:31:07;1.08;85.09
69436;SHT31;56625;54.322;18.582;2023-11-19T08:33:37;1.07;84.93
69436;SHT31;56625;54.322;18.582;2023-11-19T08:36:05;1.07;84.92
69436;SHT31;56625;54.322;18.582;2023-11-19T08:38:34;1.07;84.95
69436;SHT31;56625;54.322;18.582;2023-11-19T08:41:03;1.05;85.01
69436;SHT31;56625;54.322;18.582;2023-11-19T08:43:31;1.06;85.00
69436;SHT31;56625;54.322;18.582;2023-11-19T08:45:59;1.03;84.88
69436;SHT31;56625;54.322;18.582;2023-11-19T08:48:27;1.03;85.11
69436;SHT31;56625;54.322;18.582;2023-11-19T08:50:55;1.06;85.21
69436;SHT31;56625;54.322;18.582;2023-11-19T08:53:23;1.07;85.12
69436;SHT31;56625;54.322;18.582;2023-11-19T08:55:52;1.08;85.01
69436;SHT31;56625;54.322;18.582;2023-11-19T08:58:20;1.12;85.09
69436;SHT31;56625;54.322;18.582;2023-11-19T09:00:49;1.16;85.13
69436;SHT31;56625;54.322;18.582;2023-11-19T09:03:17;1.23;84.98
69436;SHT31;56625;54.322;18.582;2023-11-19T09:05:45;1.25;84.83
69436;SHT31;56625;54.322;18.582;2023-11-19T09:08:14;1.26;84.44
69436;SHT31;56625;54.322;18.582;2023-11-19T09:10:42;1.25;84.35
69436;SHT31;56625;54.322;18.582;2023-11-19T09:13:10;1.26;84.34
69436;SHT31;56625;54.322;18.582;2023-11-19T09:15:38;1.27;84.23
69436;SHT31;56625;54.322;18.582;2023-11-19T09:18:06;1.28;84.18
69436;SHT31;56625;54.322;18.582;2023-11-19T09:20:35;1.27;83.98
69436;SHT31;56625;54.322;18.582;2023-11-19T09:23:06;1.24;84.03
69436;SHT31;56625;54.322;18.582;2023-11-19T09:25:37;1.22;84.08
69436;SHT31;56625;54.322;18.582;2023-11-19T09:28:08;1.20;84.02
69436;SHT31;56625;54.322;18.582;2023-11-19T09:30:36;1.21;84.28
69436;SHT31;56625;54.322;18.582;2023-11-19T09:33:04;1.25;84.40
69436;SHT31;56625;54.322;18.582;2023-11-19T09:35:33;1.30;84.26
69436;SHT31;56625;54.322;18.582;2023-11-19T09:38:02;1.34;84.06
69436;SHT31;56625;54.322;18.582;2023-11-19T09:40:32;1.38;83.96
69436;SHT31;56625;54.322;18.582;2023-11-19T09:43:00;1.41;83.51
69436;SHT31;56625;54.322;18.582;2023-11-19T09:45:29;1.41;82.98
69436;SHT31;56625;54.322;18.582;2023-11-19T09:48:18;1.43;83.11
69436;SHT31;56625;54.322;18.582;2023-11-19T09:50:47;1.47;83.14
69436;SHT31;56625;54.322;18.582;2023-11-19T09:53:16;1.45;82.65
69436;SHT31;56625;54.322;18.582;2023-11-19T09:55:44;1.48;82.99
69436;SHT31;56625;54.322;18.582;2023-11-19T09:58:12;1.51;83.07
69436;SHT31;56625;54.322;18.582;2023-11-19T10:00:43;1.50;82.89
69436;SHT31;56625;54.322;18.582;2023-11-19T10:03:19;1.51;83.02
69436;SHT31;56625;54.322;18.582;2023-11-19T10:05:51;1.55;83.04
69436;SHT31;56625;54.322;18.582;2023-11-19T10:08:19;1.55;82.71
69436;SHT31;56625;54.322;18.582;2023-11-19T10:10:47;1.52;82.46
69436;SHT31;56625;54.322;18.582;2023-11-19T10:13:15;1.50;82.40
69436;SHT31;56625;54.322;18.582;2023-11-19T10:15:43;1.47;82.23
69436;SHT31;56625;54.322;18.582;2023-11-19T10:18:13;1.45;82.17
69436;SHT31;56625;54.322;18.582;2023-11-19T10:20:42;1.39;82.13
69436;SHT31;56625;54.322;18.582;2023-11-19T10:23:11;1.37;82.37
69436;SHT31;56625;54.322;18.582;2023-11-19T10:25:39;1.37;82.51
69436;SHT31;56625;54.322;18.582;2023-11-19T10:28:07;1.38;82.78
69436;SHT31;56625;54.322;18.582;2023-11-19T10:30:36;1.37;82.77
69436;SHT31;56625;54.322;18.582;2023-11-19T10:35:37;1.34;82.85
69436;SHT31;56625;54.322;18.582;2023-11-19T10:38:27;1.37;83.01
69436;SHT31;56625;54.322;18.582;2023-11-19T10:40:55;1.37;82.96
69436;SHT31;56625;54.322;18.582;2023-11-19T10:43:24;1.39;82.93
69436;SHT31;56625;54.322;18.582;2023-11-19T10:45:53;1.39;82.96
69436;SHT31;56625;54.322;18.582;2023-11-19T10:48:21;1.40;83.04
69436;SHT31;56625;54.322;18.582;2023-11-19T10:50:53;1.39;82.96
69436;SHT31;56625;54.322;18.582;2023-11-19T10:53:24;1.41;82.77
69436;SHT31;56625;54.322;18.582;2023-11-19T10:55:54;1.43;82.73
69436;SHT31;56625;54.322;18.582;2023-11-19T10:58:28;1.43;82.71
69436;SHT31;56625;54.322;18.582;2023-11-19T11:01:03;1.48;82.74
69436;SHT31;56625;54.322;18.582;2023-11-19T11:03:41;1.52;82.60
69436;SHT31;56625;54.322;18.582;2023-11-19T11:06:14;1.57;82.66
69436;SHT31;56625;54.322;18.582;2023-11-19T11:08:42;1.62;82.74
69436;SHT31;56625;54.322;18.582;2023-11-19T11:11:15;1.65;82.64
69436;SHT31;56625;54.322;18.582;2023-11-19T11:13:50;1.67;82.52
69436;SHT31;56625;54.322;18.582;2023-11-19T11:16:20;1.70;82.52
69436;SHT31;56625;54.322;18.582;2023-11-19T11:18:51;1.73;82.52
69436;SHT31;56625;54.322;18.582;2023-11-19T11:21:21;1.75;82.65
69436;SHT31;56625;54.322;18.582;2023-11-19T11:36:58;1.70;83.24
69436;SHT31;56625;54.322;18.582;2023-11-19T11:39:42;1.71;83.31
69436;SHT31;56625;54.322;18.582;2023-11-19T11:45:01;1.75;83.26
69436;SHT31;56625;54.322;18.582;2023-11-19T11:50:11;1.76;83.14
69436;SHT31;56625;54.322;18.582;2023-11-19T11:58:26;1.68;84.09
69436;SHT31;56625;54.322;18.582;2023-11-19T12:01:01;1.66;84.27
69436;SHT31;56625;54.322;18.582;2023-11-19T12:03:33;1.63;84.34
69436;SHT31;56625;54.322;18.582;2023-11-19T12:06:02;1.60;84.65
69436;SHT31;56625;54.322;18.582;2023-11-19T12:08:31;1.57;84.83
69436;SHT31;56625;54.322;18.582;2023-11-19T12:11:20;1.52;85.15
69436;SHT31;56625;54.322;18.582;2023-11-19T12:13:53;1.50;85.47
69436;SHT31;56625;54.322;18.582;2023-11-19T12:16:26;1.51;85.83
69436;SHT31;56625;54.322;18.582;2023-11-19T12:19:03;1.49;85.98
69436;SHT31;56625;54.322;18.582;2023-11-19T12:21:35;1.50;86.16
69436;SHT31;56625;54.322;18.582;2023-11-19T12:24:06;1.52;86.20
69436;SHT31;56625;54.322;18.582;2023-11-19T12:26:37;1.53;86.19
69436;SHT31;56625;54.322;18.582;2023-11-19T12:29:06;1.51;86.22
69436;SHT31;56625;54.322;18.582;2023-11-19T12:31:36;1.50;86.34
69436;SHT31;56625;54.322;18.582;2023-11-19T12:34:06;1.50;86.47
69436;SHT31;56625;54.322;18.582;2023-11-19T12:36:40;1.49;86.56
69436;SHT31;56625;54.322;18.582;2023-11-19T12:39:09;1.47;86.78
69436;SHT31;56625;54.322;18.582;2023-11-19T12:41:50;1.46;86.95
69436;SHT31;56625;54.322;18.582;2023-11-19T12:44:19;1.46;87.03
69436;SHT31;56625;54.322;18.582;2023-11-19T12:46:58;1.46;87.02
69436;SHT31;56625;54.322;18.582;2023-11-19T12:49:35;1.48;87.16
69436;SHT31;56625;54.322;18.582;2023-11-19T12:52:11;1.48;87.28
69436;SHT31;56625;54.322;18.582;2023-11-19T12:54:40;1.47;87.33
69436;SHT31;56625;54.322;18.582;2023-11-19T12:57:08;1.50;87.48
69436;SHT31;56625;54.322;18.582;2023-11-19T12:59:36;1.54;87.56
69436;SHT31;56625;54.322;18.582;2023-11-19T13:02:05;1.56;87.57
69436;SHT31;56625;54.322;18.582;2023-11-19T13:04:34;1.55;87.60
69436;SHT31;56625;54.322;18.582;2023-11-19T13:07:02;1.57;87.66
69436;SHT31;56625;54.322;18.582;2023-11-19T13:09:33;1.59;87.65
69436;SHT31;56625;54.322;18.582;2023-11-19T13:12:11;1.59;87.64
69436;SHT31;56625;54.322;18.582;2023-11-19T13:14:43;1.57;87.74
69436;SHT31;56625;54.322;18.582;2023-11-19T13:17:13;1.58;87.95
69436;SHT31;56625;54.322;18.582;2023-11-19T13:19:43;1.57;88.13
69436;SHT31;56625;54.322;18.582;2023-11-19T13:22:11;1.56;88.16
69436;SHT31;56625;54.322;18.582;2023-11-19T13:24:39;1.55;88.28
69436;SHT31;56625;54.322;18.582;2023-11-19T13:27:08;1.53;88.36
69436;SHT31;56625;54.322;18.582;2023-11-19T13:29:36;1.51;88.37
69436;SHT31;56625;54.322;18.582;2023-11-19T13:32:04;1.52;88.45
69436;SHT31;56625;54.322;18.582;2023-11-19T13:34:33;1.52;88.47
69436;SHT31;56625;54.322;18.582;2023-11-19T13:37:01;1.51;88.62
69436;SHT31;56625;54.322;18.582;2023-11-19T13:39:30;1.48;88.76
69436;SHT31;56625;54.322;18.582;2023-11-19T13:41:59;1.45;88.73
69436;SHT31;56625;54.322;18.582;2023-11-19T13:44:30;1.43;88.78
69436;SHT31;56625;54.322;18.582;2023-11-19T13:46:58;1.41;88.95
69436;SHT31;56625;54.322;18.582;2023-11-19T13:49:26;1.40;88.94
69436;SHT31;56625;54.322;18.582;2023-11-19T13:51:56;1.41;89.12
69436;SHT31;56625;54.322;18.582;2023-11-19T13:54:26;1.40;89.14
69436;SHT31;56625;54.322;18.582;2023-11-19T13:56:59;1.40;89.15
69436;SHT31;56625;54.322;18.582;2023-11-19T13:59:28;1.40;89.29
69436;SHT31;56625;54.322;18.582;2023-11-19T14:02:01;1.40;89.30
69436;SHT31;56625;54.322;18.582;2023-11-19T14:04:30;1.41;89.33
69436;SHT31;56625;54.322;18.582;2023-11-19T14:06:58;1.42;89.39
69436;SHT31;56625;54.322;18.582;2023-11-19T14:09:26;1.41;89.49
69436;SHT31;56625;54.322;18.582;2023-11-19T14:11:57;1.40;89.55
69436;SHT31;56625;54.322;18.582;2023-11-19T14:14:25;1.40;89.58
69436;SHT31;56625;54.322;18.582;2023-11-19T14:16:55;1.39;89.59
69436;SHT31;56625;54.322;18.582;2023-11-19T14:19:41;1.40;89.60
69436;SHT31;56625;54.322;18.582;2023-11-19T14:22:10;1.42;89.61
69436;SHT31;56625;54.322;18.582;2023-11-19T14:24:40;1.43;89.67
69436;SHT31;56625;54.322;18.582;2023-11-19T14:27:10;1.40;89.74
69436;SHT31;56625;54.322;18.582;2023-11-19T14:29:39;1.40;89.71
69436;SHT31;56625;54.322;18.582;2023-11-19T14:32:08;1.40;89.74
69436;SHT31;56625;54.322;18.582;2023-11-19T14:34:36;1.39;89.75
69436;SHT31;56625;54.322;18.582;2023-11-19T14:37:08;1.37;89.85
69436;SHT31;56625;54.322;18.582;2023-11-19T14:39:36;1.35;89.80
69436;SHT31;56625;54.322;18.582;2023-11-19T14:42:04;1.35;89.90
69436;SHT31;56625;54.322;18.582;2023-11-19T14:44:33;1.37;89.90
69436;SHT31;56625;54.322;18.582;2023-11-19T14:47:02;1.36;89.90
69436;SHT31;56625;54.322;18.582;2023-11-19T14:49:30;1.36;89.94
69436;SHT31;56625;54.322;18.582;2023-11-19T14:51:59;1.33;89.96
69436;SHT31;56625;54.322;18.582;2023-11-19T14:54:32;1.30;90.06
69436;SHT31;56625;54.322;18.582;2023-11-19T14:57:01;1.29;90.10
69436;SHT31;56625;54.322;18.582;2023-11-19T14:59:31;1.29;90.15
69436;SHT31;56625;54.322;18.582;2023-11-19T15:02:00;1.27;90.22
69436;SHT31;56625;54.322;18.582;2023-11-19T15:04:29;1.25;90.23
69436;SHT31;56625;54.322;18.582;2023-11-19T15:06:58;1.24;90.27
69436;SHT31;56625;54.322;18.582;2023-11-19T15:09:27;1.23;90.32
69436;SHT31;56625;54.322;18.582;2023-11-19T15:11:55;1.21;90.35
69436;SHT31;56625;54.322;18.582;2023-11-19T15:14:26;1.18;90.49
69436;SHT31;56625;54.322;18.582;2023-11-19T15:16:54;1.15;90.54
69436;SHT31;56625;54.322;18.582;2023-11-19T15:19:22;1.13;90.67
69436;SHT31;56625;54.322;18.582;2023-11-19T15:21:50;1.11;90.73
69436;SHT31;56625;54.322;18.582;2023-11-19T15:24:18;1.09;90.80
69436;SHT31;56625;54.322;18.582;2023-11-19T15:26:46;1.07;90.91
69436;SHT31;56625;54.322;18.582;2023-11-19T15:29:15;1.07;90.90
69436;SHT31;56625;54.322;18.582;2023-11-19T15:31:43;1.06;90.96
69436;SHT31;56625;54.322;18.582;2023-11-19T15:34:11;1.06;91.11
69436;SHT31;56625;54.322;18.582;2023-11-19T15:36:40;1.06;91.07
69436;SHT31;56625;54.322;18.582;2023-11-19T15:39:08;1.06;91.08
69436;SHT31;56625;54.322;18.582;2023-11-19T15:41:36;1.06;91.11
69436;SHT31;56625;54.322;18.582;2023-11-19T15:44:04;1.05;91.05
69436;SHT31;56625;54.322;18.582;2023-11-19T15:46:33;1.05;91.08
69436;SHT31;56625;54.322;18.582;2023-11-19T15:49:02;1.03;91.18
69436;SHT31;56625;54.322;18.582;2023-11-19T15:51:30;1.03;91.20
69436;SHT31;56625;54.322;18.582;2023-11-19T15:53:59;1.05;91.21
69436;SHT31;56625;54.322;18.582;2023-11-19T15:56:27;1.05;91.20
69436;SHT31;56625;54.322;18.582;2023-11-19T15:58:58;1.04;91.20
69436;SHT31;56625;54.322;18.582;2023-11-19T16:01:27;1.05;91.24
69436;SHT31;56625;54.322;18.582;2023-11-19T16:03:56;1.04;91.24
69436;SHT31;56625;54.322;18.582;2023-11-19T16:06:24;1.05;91.23
69436;SHT31;56625;54.322;18.582;2023-11-19T16:08:52;1.06;91.25
69436;SHT31;56625;54.322;18.582;2023-11-19T16:11:22;1.06;91.30